Flight Track Log - Related Links

Times and Time Zones

All times are in EDT time to prevent confusion due to time zone crossing. See the N650CH flight status page for this flight to view local times or setup timezone preferences in your user account.

Time Position Orientation Groundspeed Altitude Reporting Facility
EDT Latitude Longitude Course Direction KTS MPH feet Rate Location/Type
Wed 04:06:16 PM 41.8744 -88.3103 352° North 227 261 2,800  Level Chicago Center
Wed 04:07:18 PM 41.9531 -88.3253 352° North 273 314 4,600 2,032 Climbing Chicago Center
Wed 04:08:20 PM 41.9919 -88.2400 58° Northeast 269 310 7,000 1,839 Climbing Chicago Center
Wed 04:09:22 PM 42.0508 -88.1736 40° Northeast 286 329 8,400 1,306 Climbing Chicago Center
Wed 04:10:24 PM 42.1028 -88.1233 36° Northeast 288 331 9,700 1,597 Climbing Chicago Center
Wed 04:11:26 PM 42.1892 -88.0544 31° Northeast 312 359 11,700 1,935 Climbing Chicago Center
Wed 04:12:28 PM 42.2917 -88.0625 357° North 310 357 13,700 1,645 Climbing Chicago Center
Wed 04:13:30 PM 42.3700 -88.0589 North 313 360 15,100 1,584 Climbing Chicago Center
Wed 04:14:33 PM 42.4344 -88.1456 315° West 312 359 17,000 1,824 Climbing Chicago Center
Wed 04:15:35 PM 42.4394 -88.2639 273° West 311 358 18,900 1,742 Climbing Chicago Center
Wed 04:16:37 PM 42.4469 -88.3808 275° West 310 357 20,600 1,597 Climbing Chicago Center
Wed 04:17:39 PM 42.4511 -88.4978 273° West 310 357 22,200 1,597 Climbing Chicago Center
Wed 04:18:41 PM 42.4561 -88.6178 273° West 317 365 23,900 1,597 Climbing Chicago Center
Wed 04:19:43 PM 42.4619 -88.7375 274° West 318 366 25,500 1,694 Climbing Chicago Center
Wed 04:20:45 PM 42.4672 -88.8769 273° West 319 367 27,400 1,210 Climbing Chicago Center
Wed 04:21:47 PM 42.4722 -89.0014 273° West 327 376 28,000 290 Climbing Chicago Center
Wed 04:22:49 PM 42.4781 -89.1453 273° West 377 434 28,000  Level Chicago Center
Wed 04:23:51 PM 42.4847 -89.2922 274° West 391 450 28,000  Level Chicago Center
Wed 04:24:54 PM 42.4917 -89.4439 274° West 401 461 28,000  Level Chicago Center
Wed 04:25:56 PM 42.4961 -89.6114 272° West 388 447 28,000  Level Chicago Center
Wed 04:26:58 PM 42.5114 -89.7508 279° West 380 437 28,000  Level Chicago Center
Wed 04:28:00 PM 42.5469 -89.8867 290° West 381 438 28,000  Level Chicago Center
Wed 04:29:03 PM 42.5725 -90.0158 285° West 375 432 28,000  Level Chicago Center
Wed 04:30:04 PM 42.6025 -90.1486 287° West 375 432 28,000  Level Chicago Center
Wed 04:31:06 PM 42.6378 -90.3111 286° West 378 435 28,000  Level Chicago Center
Wed 04:32:08 PM 42.6661 -90.4483 286° West 383 441 28,000  Level Chicago Center
Wed 04:33:10 PM 42.6964 -90.5856 287° West 384 442 28,000  Level Chicago Center
Wed 04:34:12 PM 42.7261 -90.7250 286° West 387 445 28,000  Level Chicago Center
Wed 04:35:15 PM 42.7556 -90.8650 286° West 390 449 28,000  Level Chicago Center
Wed 04:36:17 PM 42.7906 -91.0317 286° West 388 447 28,000  Level Chicago Center
Wed 04:37:19 PM 42.8206 -91.1708 286° West 391 450 28,000  Level Chicago Center
Wed 04:38:21 PM 42.8494 -91.3089 286° West 385 443 28,000  Level Chicago Center
Wed 04:39:23 PM 42.8769 -91.4456 285° West 383 441 28,000  Level Chicago Center
Wed 04:40:01 PM 42.9006 -91.5525 287° West 384 442 28,000  Level Minneapolis Center
Wed 04:41:04 PM 42.9278 -91.6889 285° West 384 442 28,000  Level Minneapolis Center
Wed 04:42:06 PM 42.9531 -91.8247 284° West 380 437 28,000  Level Minneapolis Center
Wed 04:43:08 PM 42.9803 -91.9614 285° West 379 436 28,000  Level Minneapolis Center
Wed 04:44:10 PM 43.0128 -92.1258 285° West 378 435 28,000  Level Minneapolis Center
Wed 04:45:12 PM 43.0408 -92.2617 286° West 378 435 28,000  Level Minneapolis Center
Wed 04:46:14 PM 43.0672 -92.3994 285° West 378 435 28,000  Level Minneapolis Center
Wed 04:47:16 PM 43.1144 -92.5256 297° West 386 444 28,000  Level Minneapolis Center
Wed 04:48:18 PM 43.1967 -92.6503 312° West 372 428 28,000  Level Minneapolis Center
Wed 04:49:20 PM 43.2653 -92.7575 311° West 376 433 28,000  Level Minneapolis Center
Wed 04:50:22 PM 43.3342 -92.8628 312° West 376 433 28,000 -581 Level Minneapolis Center
Wed 04:51:24 PM 43.4031 -92.9667 312° West 372 428 26,800 -1,597 Descending Minneapolis Center
Wed 04:52:26 PM 43.4722 -93.0739 312° West 375 432 24,700 -2,016 Descending Minneapolis Center
Wed 04:53:29 PM 43.5617 -93.1683 323° Northwest 363 418 22,600 -2,160 Descending Minneapolis Center
Wed 04:54:31 PM 43.6589 -93.2067 344° North 363 418 20,200 -2,323 Descending Minneapolis Center
Wed 04:55:33 PM 43.7542 -93.2503 342° North 362 417 17,800 -2,323 Descending Minneapolis Center
Wed 04:56:35 PM 43.8472 -93.2892 343° North 355 409 15,400 -2,565 Descending Minneapolis Center
Wed 04:57:37 PM 43.9517 -93.3364 342° North 333 383 12,500 -2,516 Descending Minneapolis Center
Wed 04:58:39 PM 44.0322 -93.3703 343° North 311 358 10,200 -1,935 Descending Minneapolis Center
Wed 04:59:41 PM 44.1064 -93.4031 342° North 284 327 8,500 -1,056 Descending Minneapolis Center
Wed 05:00:44 PM 44.1789 -93.4364 342° North 276 318 8,000 -528 Descending Minneapolis Center
Wed 05:01:46 PM 44.2489 -93.4617 345° North 264 304 7,400 -1,161 Descending Minneapolis Center
Wed 05:02:48 PM 44.3303 -93.4153 22° Northeast 285 328 5,600 -1,645 Descending Minneapolis Center
Wed 05:03:50 PM 44.3919 -93.3469 38° Northeast 286 329 4,000 -1,258 Descending Minneapolis Center
Wed 05:04:52 PM 44.4561 -93.2850 35° Northeast 282 325 3,000 -484 Descending Minneapolis Center
Wed 05:05:54 PM 44.5139 -93.2336 32° Northeast 252 290 3,000  Level Minneapolis Center
Wed 05:07:58 PM 44.6394 -93.1256 31° Northeast 245 282 3,000  Level Minneapolis Center
Wed 05:09:00 PM 44.6972 -93.0767 31° Northeast 248 285 3,000 -194 Level Minneapolis Center
Wed 05:10:02 PM 44.7564 -93.0261 31° Northeast 253 291 2,600 -240 Descending Minneapolis Center
Wed 05:11:05 PM 44.8208 -93.0053 13° North 243 280 2,500 -384 Descending Minneapolis Center
Wed 05:12:07 PM 44.8861 -93.0153 354° North 191 220 1,800 -726 Descending Minneapolis Center
Wed 05:13:09 PM 44.9222 -93.0497 326° Northwest 157 181 1,000 -774 Descending Minneapolis Center
Wed 05:15:00 PM 44.9333 -93.0500 43° Northeast  Level FlightAware Approximate
Wed 05:22:00 PM 44.9346 -93.0603 43° Northeast  Level Estimated

Login

Don't have an account? Register now (free) for customized features, flight alerts, and more!